Time;durP1;ratioP1;P1;durP2;ratioP2;P2;SDS_P1;SDS_P2;PMS_P1;PMS_P2;Temp;Humidity;BMP_temperature;BMP_pressure;BME280_temperature;BME280_humidity;BME280_pressure;Samples;Min_cycle;Max_cycle;Signal;HPM_P1;HPM_P2
2022/07/28 00:01:58;;;;;;;5.90;1.60;;;;;;;-148.88;80.10;76159.13;5053235;28;20475;-85
2022/07/28 00:04:24;;;;;;;5.30;1.38;;;;;;;-148.88;80.46;76155.06;5053414;28;20048;-84
2022/07/28 00:06:49;;;;;;;6.60;1.80;;;;;;;-148.88;80.23;76155.06;5053504;28;20017;-84
2022/07/28 00:09:14;;;;;;;4.43;1.50;;;;;;;-148.88;80.40;76157.09;5053203;28;20123;-84
2022/07/28 00:11:40;;;;;;;6.68;1.58;;;;;;;-148.88;80.77;76175.38;5053034;28;20108;-82
2022/07/28 00:14:05;;;;;;;6.57;1.60;;;;;;;-148.88;82.01;76195.69;5053220;28;20094;-85
2022/07/28 00:16:30;;;;;;;4.35;1.55;;;;;;;-148.88;83.57;76203.81;5054068;28;20395;-84
2022/07/28 00:18:56;;;;;;;3.85;1.48;;;;;;;-148.88;83.17;76181.47;5052851;28;20075;-85
2022/07/28 00:21:23;;;;;;;4.05;1.48;;;;;;;-148.88;82.91;76171.31;5053328;28;20024;-84
2022/07/28 00:23:48;;;;;;;4.88;1.60;;;;;;;-148.88;82.34;76171.31;5052862;28;20024;-85
2022/07/28 00:26:14;;;;;;;5.22;1.55;;;;;;;-148.88;82.17;76163.19;5054020;28;20032;-83
2022/07/28 00:28:39;;;;;;;4.15;1.70;;;;;;;-148.88;81.96;76171.31;5053186;28;20028;-83
2022/07/28 00:31:05;;;;;;;5.28;1.63;;;;;;;-148.88;81.83;76179.44;5053586;28;20418;-84
2022/07/28 00:33:30;;;;;;;4.65;1.40;;;;;;;-148.88;81.39;76185.53;5053120;28;20033;-84
2022/07/28 00:35:56;;;;;;;5.00;1.60;;;;;;;-148.88;81.10;76195.69;5052874;28;20067;-84
2022/07/28 00:38:21;;;;;;;8.18;1.80;;;;;;;-148.88;81.24;76199.75;5052542;28;20106;-84
2022/07/28 00:43:30;;;;;;;6.32;1.90;;;;;;;-148.88;82.71;76228.19;5054215;28;20419;-84
2022/07/28 00:45:56;;;;;;;4.57;1.80;;;;;;;-148.88;83.87;76240.38;5052742;28;20025;-84
2022/07/28 00:48:21;;;;;;;5.32;1.60;;;;;;;-148.88;84.35;76236.31;5052450;28;20431;-85
2022/07/28 00:50:46;;;;;;;5.85;1.75;;;;;;;-148.88;83.99;76236.31;5053059;28;20436;-85
2022/07/28 00:53:12;;;;;;;4.90;1.80;;;;;;;-148.88;83.91;76218.03;5052625;28;20051;-84
2022/07/28 00:55:37;;;;;;;3.63;1.77;;;;;;;-148.88;83.36;76211.94;5052328;28;20025;-84
2022/07/28 00:58:06;;;;;;;6.70;1.45;;;;;;;-148.88;82.82;76207.88;5052032;28;20075;-84
2022/07/28 01:00:31;;;;;;;5.30;1.70;;;;;;;-148.88;82.62;76203.81;5054634;28;20025;-84
2022/07/28 01:02:57;;;;;;;4.80;1.70;;;;;;;-148.88;82.08;76199.75;5052518;28;20036;-84
2022/07/28 01:05:24;;;;;;;3.92;1.63;;;;;;;-148.88;81.96;76197.72;5052134;28;20494;-84
2022/07/28 01:07:58;;;;;;;4.68;2.08;;;;;;;-148.88;81.82;76216.00;5052184;28;20514;-84
2022/07/28 01:10:42;;;;;;;4.95;1.77;;;;;;;-148.88;83.26;76224.13;5052377;28;20036;-84
2022/07/28 01:13:31;;;;;;;4.90;2.10;;;;;;;-148.88;83.84;76232.25;5052640;28;20495;-84
2022/07/28 01:16:04;;;;;;;6.30;1.98;;;;;;;-148.88;84.47;76244.44;5042807;28;20127;-82
2022/07/28 01:18:56;;;;;;;5.53;2.00;;;;;;;-148.88;84.36;76240.38;5052022;28;20487;-84
2022/07/28 01:21:31;;;;;;;4.85;1.92;;;;;;;-148.88;83.60;76232.25;5052657;28;20060;-85
2022/07/28 01:24:17;;;;;;;3.78;1.77;;;;;;;-148.88;83.38;76234.28;5054973;28;20020;-84
2022/07/28 01:26:49;;;;;;;6.13;2.03;;;;;;;-148.88;83.77;76240.38;5051870;28;20108;-85
2022/07/28 01:29:27;;;;;;;10.97;2.10;;;;;;;-148.88;84.61;76258.66;5052658;28;20398;-84
2022/07/28 01:32:00;;;;;;;3.70;2.00;;;;;;;-148.88;84.85;76248.50;5051903;28;20266;-85
2022/07/28 01:34:34;;;;;;;4.90;1.77;;;;;;;-148.88;85.29;76244.44;5051922;28;20153;-84
2022/07/28 01:37:08;;;;;;;8.45;2.30;;;;;;;-148.88;85.00;76244.44;5053907;28;20037;-84
2022/07/28 01:39:36;;;;;;;7.00;2.20;;;;;;;-148.88;85.75;76254.59;5056662;28;20476;-85
2022/07/28 01:42:05;;;;;;;6.35;1.85;;;;;;;-148.88;85.27;76254.59;5055973;28;20123;-85
2022/07/28 01:44:36;;;;;;;4.38;1.95;;;;;;;-148.88;85.52;76254.59;5055910;28;20434;-84
2022/07/28 01:47:06;;;;;;;4.97;1.98;;;;;;;-148.88;85.26;76256.63;5055901;28;20021;-84
2022/07/28 01:49:34;;;;;;;6.18;1.98;;;;;;;-148.88;85.46;76248.50;5055825;28;20040;-84
2022/07/28 01:52:04;;;;;;;4.63;1.90;;;;;;;-148.88;85.32;76252.56;5055844;28;20372;-85
2022/07/28 01:54:30;;;;;;;6.70;2.00;;;;;;;-148.88;85.63;76254.59;5056655;28;20028;-84
2022/07/28 01:56:59;;;;;;;5.28;1.90;;;;;;;-148.88;85.17;76260.69;5056567;28;20021;-84
2022/07/28 01:59:27;;;;;;;7.00;2.17;;;;;;;-148.88;86.15;76272.88;5055595;28;20038;-85
2022/07/28 02:01:53;;;;;;;4.75;2.10;;;;;;;-148.88;86.27;76264.75;5055853;28;20029;-84
2022/07/28 02:04:21;;;;;;;7.05;2.05;;;;;;;-148.88;86.08;76268.81;5055771;28;20025;-84
2022/07/28 02:06:49;;;;;;;6.05;2.20;;;;;;;-148.88;86.69;76256.63;5055442;28;20498;-85
2022/07/28 02:09:16;;;;;;;5.22;1.95;;;;;;;-148.88;86.10;76260.69;5055353;28;20395;-84
2022/07/28 02:11:45;;;;;;;3.80;1.90;;;;;;;-148.88;85.05;76252.56;5055394;28;20394;-84
2022/07/28 02:14:20;;;;;;;7.45;2.38;;;;;;;-148.88;85.73;76252.56;5056114;28;20032;-84
2022/07/28 02:16:50;;;;;;;6.60;2.17;;;;;;;-148.88;85.68;76256.63;5055190;28;20545;-85
2022/07/28 02:19:17;;;;;;;4.97;1.98;;;;;;;-148.88;86.03;76256.63;5055856;28;20043;-84
2022/07/28 02:21:46;;;;;;;4.85;1.85;;;;;;;-148.88;86.48;76256.63;5056678;28;20027;-85
2022/07/28 02:24:20;;;;;;;4.38;2.03;;;;;;;-148.88;86.04;76248.50;5055206;28;20036;-84
2022/07/28 02:26:59;;;;;;;;;;;;;;;-148.88;85.82;76244.44;5056352;28;20028;-84
2022/07/28 02:29:30;;;;;;;7.43;2.25;;;;;;;-148.88;85.63;76246.47;5054968;28;20302;-85
2022/07/28 02:32:16;;;;;;;6.78;1.92;;;;;;;-148.88;85.67;76240.38;5055125;28;20017;-84
2022/07/28 02:34:43;;;;;;;3.92;1.88;;;;;;;-148.88;85.29;76252.56;5054982;28;20028;-82
2022/07/28 02:37:10;;;;;;;5.47;1.75;;;;;;;-148.88;85.47;76264.75;5054960;28;20029;-84
2022/07/28 02:39:43;;;;;;;4.45;2.13;;;;;;;-148.88;86.02;76260.69;5055197;28;20021;-85
2022/07/28 02:42:14;;;;;;;7.20;2.20;;;;;;;-148.88;85.76;76264.75;5054962;28;20021;-83
2022/07/28 02:44:44;;;;;;;4.90;2.08;;;;;;;-148.88;86.02;76264.75;5054851;28;20265;-83
2022/07/28 02:47:15;;;;;;;5.45;1.90;;;;;;;-148.88;85.68;76268.81;5054383;28;20543;-84
2022/07/28 02:49:42;;;;;;;4.30;1.88;;;;;;;-148.88;85.92;76270.84;5054823;28;20029;-84
2022/07/28 02:52:10;;;;;;;6.30;2.30;;;;;;;-148.88;85.80;76268.81;5054698;28;20432;-84
2022/07/28 02:54:36;;;;;;;5.68;2.10;;;;;;;-148.88;85.76;76260.69;5054816;28;20121;-84
2022/07/28 02:57:04;;;;;;;3.42;1.95;;;;;;;-148.88;85.27;76268.81;5054943;28;20025;-85
2022/07/28 02:59:33;;;;;;;5.13;2.03;;;;;;;-148.88;85.25;76272.88;5054595;28;20119;-84
2022/07/28 03:01:59;;;;;;;5.93;1.80;;;;;;;-148.88;85.88;76268.81;5056523;28;20383;-84
2022/07/28 03:07:11;;;;;;;6.40;1.90;;;;;;;-148.88;85.91;76291.16;5056212;28;20052;-84
2022/07/28 03:09:42;;;;;;;4.53;2.22;;;;;;;-148.88;86.96;76307.41;5054368;28;20097;-84
2022/07/28 03:12:08;;;;;;;7.10;2.17;;;;;;;-148.88;88.30;76319.59;5054307;28;20056;-84
2022/07/28 03:14:34;;;;;;;5.80;2.28;;;;;;;-148.88;88.46;76309.44;5054653;28;20383;-84
2022/07/28 03:16:59;;;;;;;7.10;2.20;;;;;;;-148.88;87.76;76313.50;5054403;28;20622;-85
2022/07/28 03:19:24;;;;;;;7.03;2.03;;;;;;;-148.88;87.32;76315.53;5054839;28;20353;-84
2022/07/28 03:21:51;;;;;;;6.50;2.63;;;;;;;-148.88;87.36;76307.41;5054103;28;20025;-84
2022/07/28 03:24:19;;;;;;;5.63;2.30;;;;;;;-148.88;87.07;76309.44;5054258;28;20028;-84
2022/07/28 03:26:54;;;;;;;6.95;2.45;;;;;;;-148.88;86.82;76321.63;5054613;28;20134;-84
2022/07/28 03:29:21;;;;;;;9.25;2.50;;;;;;;-148.88;87.48;76333.81;5053964;28;20372;-84
2022/07/28 03:31:48;;;;;;;7.65;2.40;;;;;;;-148.88;87.66;76329.75;5053993;28;20021;-84
2022/07/28 03:34:14;;;;;;;6.10;2.60;;;;;;;-148.88;87.85;76321.63;5053934;28;20123;-82
2022/07/28 03:36:44;;;;;;;5.65;2.50;;;;;;;-148.88;87.25;76331.78;5053854;28;20108;-84
2022/07/28 03:39:11;;;;;;;5.72;1.65;;;;;;;-148.88;87.63;76346.00;5053928;28;20033;-86
2022/07/28 03:41:39;;;;;;;5.00;2.38;;;;;;;-148.88;88.01;76339.91;5053765;28;20063;-84
2022/07/28 03:44:06;;;;;;;7.82;2.65;;;;;;;-148.88;87.48;76335.84;5054822;28;20029;-84
2022/07/28 03:46:32;;;;;;;5.88;2.65;;;;;;;-148.88;87.73;76337.88;5053513;28;20028;-83
2022/07/28 03:48:57;;;;;;;5.78;2.30;;;;;;;-148.88;87.94;76329.75;5053561;28;20020;-83
2022/07/28 03:51:24;;;;;;;6.97;2.55;;;;;;;-148.88;87.62;76333.81;5054414;28;20025;-83
2022/07/28 03:53:50;;;;;;;6.55;2.33;;;;;;;-148.88;87.33;76329.75;5053775;28;20395;-83
2022/07/28 03:56:15;;;;;;;5.25;2.38;;;;;;;-148.88;88.00;76335.84;5053378;28;20013;-82
2022/07/28 03:58:40;;;;;;;6.05;2.22;;;;;;;-148.88;87.40;76346.00;5054013;28;20043;-83
2022/07/28 04:01:05;;;;;;;4.75;2.30;;;;;;;-148.88;87.66;76354.13;5054153;28;20112;-82
2022/07/28 04:03:31;;;;;;;7.50;2.25;;;;;;;-148.88;88.04;76370.38;5053282;28;20031;-83
2022/07/28 04:05:57;;;;;;;5.25;2.50;;;;;;;-148.88;88.29;76358.19;5054113;28;20482;-83
2022/07/28 04:08:22;;;;;;;5.90;2.50;;;;;;;-148.88;88.36;76362.25;5053329;28;20060;-82
2022/07/28 04:10:48;;;;;;;5.40;2.40;;;;;;;-148.88;88.31;76362.25;5053255;28;20039;-83
2022/07/28 04:13:13;;;;;;;4.15;2.20;;;;;;;-148.88;88.50;76354.13;5053099;28;20111;-81
2022/07/28 04:15:38;;;;;;;5.55;2.03;;;;;;;-148.88;88.85;76341.94;5053113;28;20021;-83
2022/07/28 04:18:04;;;;;;;3.80;2.00;;;;;;;-148.88;88.32;76341.94;5053000;28;20033;-82
2022/07/28 04:20:30;;;;;;;7.38;2.65;;;;;;;-148.88;88.25;76341.94;5052979;28;20024;-82
2022/07/28 04:22:55;;;;;;;7.10;2.50;;;;;;;-148.88;89.39;76354.13;5053212;28;20020;-83
2022/07/28 04:25:23;;;;;;;5.85;2.50;;;;;;;-148.88;89.88;76370.38;5052914;28;20378;-83
2022/07/28 04:27:49;;;;;;;7.18;2.88;;;;;;;-148.88;90.74;76356.16;5053019;28;20021;-83
2022/07/28 04:30:16;;;;;;;4.95;2.10;;;;;;;-148.88;90.17;76350.06;5052743;28;20028;-83
2022/07/28 04:32:43;;;;;;;8.93;2.45;;;;;;;-148.88;89.87;76354.13;5053146;28;20111;-84
2022/07/28 04:35:10;;;;;;;7.38;4.38;;;;;;;-148.88;90.86;76384.59;5054002;28;20430;-82
2022/07/28 04:37:35;;;;;;;7.20;3.60;;;;;;;-148.88;91.25;76368.34;5052627;28;20036;-82
2022/07/28 04:40:01;;;;;;;4.97;3.50;;;;;;;-148.88;91.57;76386.63;5052652;28;20029;-83
2022/07/28 04:42:26;;;;;;;6.60;2.97;;;;;;;-148.88;93.04;76396.78;5052668;28;20060;-82
2022/07/28 04:44:52;;;;;;;5.53;3.40;;;;;;;-148.88;92.83;76376.47;5052979;28;20158;-83
2022/07/28 04:47:17;;;;;;;9.40;3.72;;;;;;;-148.88;92.26;76392.72;5052540;28;20174;-83
2022/07/28 04:49:43;;;;;;;5.95;3.38;;;;;;;-148.88;93.53;76404.91;5052620;28;20029;-83
2022/07/28 04:52:08;;;;;;;6.32;3.30;;;;;;;-148.88;93.65;76411.00;5052784;28;20029;-84
2022/07/28 04:54:35;;;;;;;5.85;3.50;;;;;;;-148.88;94.05;76417.09;5052417;28;20128;-83
2022/07/28 04:57:01;;;;;;;5.50;3.38;;;;;;;-148.88;94.33;76431.34;5052848;28;20116;-82
2022/07/28 04:59:26;;;;;;;7.57;3.70;;;;;;;-148.88;94.80;76423.19;5052527;28;20064;-83
2022/07/28 05:01:52;;;;;;;6.28;3.20;;;;;;;-148.88;94.53;76411.00;5052278;28;20017;-83
2022/07/28 05:04:17;;;;;;;6.57;3.35;;;;;;;-148.88;94.43;76415.06;5052275;28;20033;-83
2022/07/28 05:06:43;;;;;;;8.05;3.50;;;;;;;-148.88;94.42;76419.16;5052988;28;20056;-82
2022/07/28 05:09:08;;;;;;;6.32;3.40;;;;;;;-148.88;94.99;76402.88;5052323;28;20037;-83
2022/07/28 05:11:33;;;;;;;6.85;3.50;;;;;;;-148.88;95.05;76431.34;5053831;28;20142;-83
2022/07/28 05:13:59;;;;;;;10.57;3.72;;;;;;;-148.88;95.59;76435.41;5052585;28;20111;-83
2022/07/28 05:16:24;;;;;;;6.45;3.63;;;;;;;-148.88;95.81;76427.28;5052333;28;20056;-82
2022/07/28 05:18:49;;;;;;;7.75;4.20;;;;;;;-148.88;96.23;76415.06;5052159;28;20051;-82
2022/07/28 05:21:15;;;;;;;6.70;3.25;;;;;;;-148.88;95.23;76417.09;5051993;28;20021;-82
2022/07/28 05:23:40;;;;;;;6.45;2.90;;;;;;;-148.88;94.91;76411.00;5052536;28;20372;-83
2022/07/28 05:26:06;;;;;;;9.30;3.30;;;;;;;-148.88;94.66;76394.75;5052132;28;20059;-82
2022/07/28 05:28:31;;;;;;;7.18;2.90;;;;;;;-148.88;94.31;76378.50;5052009;28;20025;-83
2022/07/28 05:30:57;;;;;;;6.78;2.70;;;;;;;-148.88;94.48;76360.22;5052218;28;20021;-83
2022/07/28 05:33:22;;;;;;;5.45;2.90;;;;;;;-148.88;94.38;76348.03;5051999;28;20024;-83
2022/07/28 05:35:56;;;;;;;6.85;2.90;;;;;;;-148.88;94.39;76331.78;5051864;28;20021;-83
2022/07/28 05:38:22;;;;;;;6.15;2.88;;;;;;;-148.88;94.46;76321.63;5052261;28;20033;-83
2022/07/28 05:40:48;;;;;;;6.70;2.88;;;;;;;-148.88;94.89;76309.44;5051990;28;20033;-83
2022/07/28 05:43:13;;;;;;;5.53;2.97;;;;;;;-148.88;95.27;76301.31;5051793;28;20475;-82
2022/07/28 05:45:39;;;;;;;11.32;2.88;;;;;;;-148.88;95.41;76293.19;5052005;28;20048;-83
2022/07/28 05:48:07;;;;;;;7.43;3.03;;;;;;;-148.88;95.02;76285.06;5051684;28;20027;-82
2022/07/28 05:50:32;;;;;;;7.13;3.10;;;;;;;-148.88;94.67;76262.72;5053126;28;20471;-83
2022/07/28 05:52:58;;;;;;;7.32;2.90;;;;;;;-148.88;94.35;76254.59;5051642;28;20060;-83
2022/07/28 05:55:23;;;;;;;8.02;3.00;;;;;;;-148.88;93.33;76246.47;5052008;28;20021;-83
2022/07/28 05:57:49;;;;;;;6.50;3.00;;;;;;;-148.88;92.95;76240.38;5051605;28;20124;-83
2022/07/28 06:00:21;;;;;;;8.30;3.15;;;;;;;-148.88;92.02;76220.06;5051714;28;20027;-83
2022/07/28 06:02:48;;;;;;;8.38;2.72;;;;;;;-148.88;89.48;76216.00;5051613;28;20070;-84
2022/07/28 06:05:16;;;;;;;5.55;2.50;;;;;;;-148.88;89.52;76197.72;5051793;28;20025;-83
2022/07/28 06:07:42;;;;;;;4.13;2.47;;;;;;;-148.88;89.87;76185.53;5051731;28;20036;-84
2022/07/28 06:10:08;;;;;;;5.35;2.58;;;;;;;-148.88;89.31;76175.38;5051583;28;20024;-84
2022/07/28 06:12:48;;;;;;;9.18;2.80;;;;;;;-148.88;86.97;76171.31;5051798;28;20430;-85
2022/07/28 06:15:15;;;;;;;5.88;2.42;;;;;;;-148.88;88.02;76151.00;5051626;28;20052;-82
2022/07/28 06:17:41;;;;;;;8.65;2.63;;;;;;;-148.88;87.87;76144.91;5051629;28;20033;-84
2022/07/28 06:20:08;;;;;;;5.13;3.20;;;;;;;-148.88;88.04;76142.88;5051943;28;20116;-84
2022/07/28 06:22:44;;;;;;;8.75;2.65;;;;;;;-148.88;88.40;76128.66;5053393;28;20028;-85
2022/07/28 06:25:26;;;;;;;6.40;2.75;;;;;;;-148.88;87.67;76116.44;5056966;28;20021;-85
2022/07/28 06:27:55;;;;;;;6.82;2.80;;;;;;;-148.88;87.30;76106.28;5056195;28;20029;-84
2022/07/28 06:30:21;;;;;;;5.18;2.55;;;;;;;-148.88;87.00;76108.31;5055536;28;20170;-84
2022/07/28 06:32:47;;;;;;;4.93;2.30;;;;;;;-148.88;86.77;76092.06;5055259;28;20025;-86
2022/07/28 06:35:15;;;;;;;5.47;2.35;;;;;;;-148.88;87.04;76092.06;5055053;28;20013;-84
2022/07/28 06:37:41;;;;;;;8.73;2.63;;;;;;;-148.88;86.10;76081.91;5055801;28;20075;-83
2022/07/28 06:40:08;;;;;;;7.10;2.65;;;;;;;-148.88;86.25;76073.78;5055245;28;20017;-84
2022/07/28 06:42:33;;;;;;;7.85;2.65;;;;;;;-148.88;84.90;76065.66;5054992;28;20550;-84
2022/07/28 06:44:59;;;;;;;6.28;2.40;;;;;;;-148.88;85.98;76057.53;5054953;28;20144;-84
2022/07/28 06:47:24;;;;;;;5.80;2.28;;;;;;;-148.88;85.10;76041.28;5055169;28;20082;-84
2022/07/28 06:49:49;;;;;;;5.18;1.90;;;;;;;-148.88;83.53;76029.09;5054949;28;20106;-84
2022/07/28 06:52:19;;;;;;;5.28;1.90;;;;;;;-148.88;81.84;76002.69;5054949;28;20214;-84
2022/07/28 06:54:45;;;;;;;4.07;1.50;;;;;;;-148.88;81.56;75980.34;5055332;28;20052;-83
2022/07/28 06:57:12;;;;;;;3.97;1.55;;;;;;;-148.88;78.64;75955.97;5054520;28;20025;-85
2022/07/28 06:59:38;;;;;;;5.50;1.50;;;;;;;-148.88;77.60;75947.84;5054615;28;20055;-84
2022/07/28 07:02:03;;;;;;;4.93;1.88;;;;;;;-148.88;77.85;75935.66;5054562;28;20047;-84
2022/07/28 07:04:28;;;;;;;4.68;1.92;;;;;;;-148.88;77.95;75903.16;5054575;28;20056;-84
2022/07/28 07:06:54;;;;;;;8.43;1.73;;;;;;;-148.88;76.45;75905.19;5054402;28;20048;-84
2022/07/28 07:09:19;;;;;;;4.70;1.48;;;;;;;-148.88;73.96;75890.97;5054382;28;20098;-85
2022/07/28 07:11:44;;;;;;;4.65;1.40;;;;;;;-148.88;73.57;75870.66;5054402;28;20021;-84
2022/07/28 07:14:10;;;;;;;4.93;1.30;;;;;;;-148.88;72.17;75854.41;5054435;28;20025;-84
2022/07/28 07:16:35;;;;;;;4.88;1.30;;;;;;;-148.88;71.70;75844.25;5054355;28;20056;-84
2022/07/28 07:19:00;;;;;;;2.60;1.30;;;;;;;-148.88;72.02;75809.72;5054186;28;20035;-84
2022/07/28 07:21:26;;;;;;;6.10;1.20;;;;;;;-148.88;66.97;75809.72;5054193;28;20514;-84
2022/07/28 07:23:51;;;;;;;4.20;1.02;;;;;;;-148.88;66.88;75797.53;5054098;28;20021;-84
2022/07/28 07:26:16;;;;;;;5.57;1.40;;;;;;;-148.88;67.94;75791.44;5054026;28;20457;-84
2022/07/28 07:28:42;;;;;;;4.13;1.33;;;;;;;-148.88;68.20;75771.13;5054180;28;20024;-85
2022/07/28 07:31:07;;;;;;;5.50;1.17;;;;;;;-148.88;65.11;75783.31;5054201;28;20025;-84
2022/07/28 07:33:32;;;;;;;5.28;1.10;;;;;;;-148.88;63.93;75781.28;5053915;28;20025;-84
2022/07/28 07:35:58;;;;;;;5.13;1.10;;;;;;;-148.88;62.94;75791.44;5052976;28;20017;-84
2022/07/28 07:38:23;;;;;;;4.10;1.00;;;;;;;-148.88;62.88;75793.47;5053885;28;20021;-84
2022/07/28 07:40:50;;;;;;;5.05;1.10;;;;;;;-148.88;63.28;75781.28;5053898;28;20021;-84
2022/07/28 07:43:16;;;;;;;4.70;1.23;;;;;;;-148.88;63.57;75760.97;5054066;28;20020;-84
2022/07/28 07:45:42;;;;;;;3.15;1.02;;;;;;;-148.88;63.45;75742.69;5054011;28;20021;-85
2022/07/28 07:48:07;;;;;;;6.28;1.20;;;;;;;-148.88;63.45;75728.47;5053640;28;20029;-84
2022/07/28 07:50:34;;;;;;;3.78;1.38;;;;;;;-148.88;62.34;75704.09;5053918;28;20032;-85
2022/07/28 07:52:59;;;;;;;4.43;1.02;;;;;;;-148.88;61.89;75698.00;5053680;28;20021;-85
2022/07/28 07:55:25;;;;;;;4.38;1.15;;;;;;;-148.88;61.87;75687.84;5053618;28;20365;-85
2022/07/28 07:57:50;;;;;;;4.13;0.90;;;;;;;-148.88;60.57;75685.81;5053831;28;20372;-85
2022/07/28 08:00:16;;;;;;;4.35;1.10;;;;;;;-148.88;61.18;75687.84;5053897;28;20056;-84
2022/07/28 08:02:42;;;;;;;5.63;1.30;;;;;;;-148.88;61.44;75695.97;5053877;28;20029;-84
2022/07/28 08:05:08;;;;;;;7.95;1.30;;;;;;;-148.88;62.29;75689.88;5053496;28;20024;-84
2022/07/28 08:07:34;;;;;;;4.70;1.10;;;;;;;-148.88;61.39;75687.84;5053199;28;20491;-84
2022/07/28 08:09:59;;;;;;;4.30;1.08;;;;;;;-148.88;61.75;75653.31;5053706;28;20024;-84
2022/07/28 08:12:24;;;;;;;2.95;1.05;;;;;;;-148.88;59.91;75649.25;5053671;28;20029;-85
2022/07/28 08:14:49;;;;;;;5.47;1.17;;;;;;;-148.88;60.51;75610.66;5053042;28;20028;-85
2022/07/28 08:17:15;;;;;;;7.15;1.10;;;;;;;-148.88;58.81;75626.91;5053141;28;20060;-83
2022/07/28 08:19:40;;;;;;;3.53;1.10;;;;;;;-148.88;60.91;75602.53;5053193;28;20499;-85
2022/07/28 08:22:05;;;;;;;2.90;0.90;;;;;;;-148.88;60.03;75586.31;5053797;28;20029;-85
2022/07/28 08:24:31;;;;;;;4.95;1.13;;;;;;;-148.88;59.98;75566.00;5052991;28;20025;-84
2022/07/28 08:26:56;;;;;;;4.43;1.25;;;;;;;-148.88;59.05;75568.03;5052854;28;20021;-85
2022/07/28 08:29:22;;;;;;;4.00;1.10;;;;;;;-148.88;59.05;75537.56;5054053;28;20025;-86
2022/07/28 08:31:47;;;;;;;3.53;0.95;;;;;;;-148.88;57.72;75563.97;5052891;28;20027;-84
2022/07/28 08:34:12;;;;;;;4.45;1.30;;;;;;;-148.88;57.12;75561.94;5052922;28;20021;-84
2022/07/28 08:36:38;;;;;;;4.82;1.38;;;;;;;-148.88;57.07;75521.31;5052633;28;20049;-84
2022/07/28 08:39:04;;;;;;;3.70;1.08;;;;;;;-148.88;57.90;75521.31;5053018;28;20473;-85
2022/07/28 08:41:35;;;;;;;5.20;0.90;;;;;;;-148.88;58.02;75507.09;5052810;28;20024;-84
2022/07/28 08:44:02;;;;;;;4.80;1.17;;;;;;;-148.88;56.84;75476.63;5053473;28;20021;-84
2022/07/28 08:46:34;;;;;;;3.20;1.00;;;;;;;-148.88;56.26;75464.44;5052447;28;20017;-84
2022/07/28 08:49:00;;;;;;;3.08;1.02;;;;;;;-148.88;54.48;75466.47;5052811;28;20033;-85
2022/07/28 08:51:26;;;;;;;4.43;1.08;;;;;;;-148.88;55.56;75452.25;5053520;28;20078;-85
2022/07/28 08:53:53;;;;;;;3.80;1.00;;;;;;;-148.88;56.83;75427.88;5052452;28;20025;-84
2022/07/28 08:56:19;;;;;;;4.38;1.00;;;;;;;-148.88;53.80;75436.00;5053393;28;20025;-85
2022/07/28 08:58:45;;;;;;;3.30;0.93;;;;;;;-148.88;52.76;75427.88;5168697;22;20045;-84
2022/07/28 09:01:12;;;;;;;4.70;1.08;;;;;;;-148.88;54.12;75444.13;5056084;28;20035;-84
2022/07/28 09:03:38;;;;;;;3.30;1.23;;;;;;;-148.88;54.85;75438.03;5054622;28;20598;-83
2022/07/28 09:06:04;;;;;;;3.65;1.10;;;;;;;-148.88;55.96;75444.13;5055573;28;20024;-84
2022/07/28 09:08:29;;;;;;;4.28;1.00;;;;;;;-148.88;56.10;75440.06;5055298;28;20029;-83
2022/07/28 09:10:55;;;;;;;4.55;1.10;;;;;;;-148.88;55.83;75401.47;5055649;28;20056;-84
2022/07/28 09:13:20;;;;;;;3.30;1.17;;;;;;;-148.88;55.78;75360.84;5054477;28;20025;-80
2022/07/28 09:15:46;;;;;;;4.90;1.00;;;;;;;-148.88;53.34;75334.44;5054373;28;20021;-82
2022/07/28 09:18:13;;;;;;;4.60;0.85;;;;;;;-148.88;53.94;75326.31;5057368;28;20078;-85
2022/07/28 09:20:39;;;;;;;3.92;0.93;;;;;;;-148.88;53.81;75306.00;5054673;28;20024;-83
2022/07/28 09:23:06;;;;;;;3.30;0.80;;;;;;;-148.88;52.08;75295.84;5054970;28;20053;-82
2022/07/28 09:25:32;;;;;;;4.82;1.00;;;;;;;-148.88;50.82;75308.03;5054042;28;20025;-80
2022/07/28 09:28:08;;;;;;;3.47;0.90;;;;;;;-148.88;51.59;75283.66;5054828;28;20029;-84
2022/07/28 09:30:37;;;;;;;5.00;1.00;;;;;;;-148.88;49.76;75277.59;5053742;28;20395;-83
2022/07/28 09:33:26;;;;;;;2.95;1.08;;;;;;;-148.88;50.96;75257.28;5053430;28;20024;-83
2022/07/28 09:35:56;;;;;;;5.32;1.08;;;;;;;-148.88;49.67;75208.53;5054441;28;20032;-85
2022/07/28 09:38:24;;;;;;;2.53;0.80;;;;;;;-148.88;49.59;75228.84;5053442;28;20052;-83
2022/07/28 09:41:01;;;;;;;4.53;1.00;;;;;;;-148.88;47.59;75234.94;5053351;28;20109;-84
2022/07/28 09:43:38;;;;;;;2.17;0.80;;;;;;;-148.88;51.35;75204.47;5053422;28;20020;-83
2022/07/28 09:46:09;;;;;;;5.28;1.20;;;;;;;-148.88;48.10;75135.41;5054332;28;20017;-84
2022/07/28 09:48:55;;;;;;;4.07;1.00;;;;;;;-148.88;50.31;75098.84;5056131;28;20104;-82
2022/07/28 09:51:26;;;;;;;2.50;0.68;;;;;;;-148.88;47.05;75111.03;5063543;28;20388;-83
2022/07/28 09:54:05;;;;;;;4.53;1.10;;;;;;;-148.88;47.14;75119.16;5057581;28;20038;-85
2022/07/28 09:56:30;;;;;;;3.13;1.20;;;;;;;-148.88;45.84;75119.16;5059347;28;20024;-85
2022/07/28 09:58:59;;;;;;;2.72;0.90;;;;;;;-148.88;47.25;75119.16;5057828;28;20029;-85
2022/07/28 10:01:25;;;;;;;5.20;0.98;;;;;;;-148.88;47.66;75074.50;5058086;28;20025;-84
2022/07/28 10:03:54;;;;;;;4.82;0.93;;;;;;;-148.88;46.39;75070.44;5057787;28;20044;-83
2022/07/28 10:06:24;;;;;;;3.80;1.00;;;;;;;-148.88;45.54;75013.56;5058924;28;20025;-84
2022/07/28 10:08:50;;;;;;;3.03;1.08;;;;;;;-148.88;44.50;75015.59;5059287;28;20064;-84
2022/07/28 10:11:19;;;;;;;2.95;1.00;;;;;;;-148.88;43.74;74997.31;5058368;28;20112;-84
2022/07/28 10:14:06;;;;;;;3.42;0.90;;;;;;;-148.88;43.55;74989.19;5059348;28;20044;-84
2022/07/28 10:16:41;;;;;;;2.17;0.80;;;;;;;-148.88;46.37;74985.13;5063612;28;20036;-85
2022/07/28 10:19:10;;;;;;;3.55;1.20;;;;;;;-148.88;45.25;75005.44;5060878;28;20052;-85
2022/07/28 10:21:42;;;;;;;5.47;1.40;;;;;;;-148.88;48.10;74938.44;5061294;28;20025;-85
2022/07/28 10:24:12;;;;;;;5.30;1.00;;;;;;;-148.88;44.75;74928.28;5065473;28;20037;-84
2022/07/28 10:26:42;;;;;;;3.42;1.02;;;;;;;-148.88;44.33;74981.06;5060040;28;20025;-85
2022/07/28 10:29:12;;;;;;;1.60;1.00;;;;;;;-148.88;44.50;74910.00;5060944;28;20068;-86
2022/07/28 10:31:42;;;;;;;3.80;1.15;;;;;;;-148.88;43.28;74928.28;5059019;28;20040;-86
2022/07/28 10:34:19;;;;;;;4.30;1.13;;;;;;;-148.88;44.62;74865.31;5059503;28;20021;-84
2022/07/28 10:36:47;;;;;;;3.45;1.20;;;;;;;-148.88;43.93;74932.34;5058603;28;20447;-86
2022/07/28 10:39:17;;;;;;;4.50;1.00;;;;;;;-148.88;42.29;74871.41;5061033;28;20030;-86
2022/07/28 10:41:42;;;;;;;6.70;1.17;;;;;;;-148.88;42.87;74818.59;5059187;28;20021;-86
2022/07/28 10:44:12;;;;;;;6.20;1.00;;;;;;;-148.88;42.49;74765.81;5058543;28;20036;-85
2022/07/28 10:46:39;;;;;;;4.05;0.75;;;;;;;-148.88;43.16;74749.56;5056554;28;20488;-86
2022/07/28 10:49:04;;;;;;;3.35;0.98;;;;;;;-148.88;41.94;74729.25;5057889;28;20056;-86
2022/07/28 10:51:30;;;;;;;3.97;1.00;;;;;;;-148.88;41.01;74731.28;5058207;28;20079;-85
2022/07/28 10:54:06;;;;;;;4.53;0.80;;;;;;;-148.88;41.75;74800.34;5058237;28;20386;-85
2022/07/28 10:56:46;;;;;;;2.92;1.00;;;;;;;-148.88;40.73;74757.69;5057681;28;20029;-85
2022/07/28 10:59:24;;;;;;;4.60;1.00;;;;;;;-148.88;40.37;74757.69;5058633;28;20075;-86
2022/07/28 11:01:49;;;;;;;4.32;1.30;;;;;;;-148.88;44.66;74784.09;5058065;28;20092;-86
2022/07/28 11:04:44;;;;;;;2.63;0.80;;;;;;;-148.88;42.18;74800.34;5057855;28;20021;-86
2022/07/28 11:07:11;;;;;;;7.25;1.00;;;;;;;-148.88;43.01;74778.00;5034900;28;20040;-85
2022/07/28 11:09:37;;;;;;;3.05;0.75;;;;;;;-148.88;42.13;74727.22;5056708;28;20466;-86
2022/07/28 11:12:03;;;;;;;2.55;0.85;;;;;;;-148.88;41.67;74702.84;5057117;28;20468;-86
2022/07/28 11:14:32;;;;;;;4.20;1.48;;;;;;;-148.88;40.12;74648.03;5057128;28;20055;-86
2022/07/28 11:17:03;;;;;;;6.43;1.00;;;;;;;-148.88;40.79;74733.31;5056974;28;20032;-87
2022/07/28 11:19:44;;;;;;;3.50;0.90;;;;;;;-148.88;41.28;74694.75;5056863;28;20029;-86
2022/07/28 11:22:20;;;;;;;5.00;0.90;;;;;;;-148.88;39.40;74721.13;5055671;28;20024;-85
2022/07/28 11:25:04;;;;;;;4.47;1.00;;;;;;;-148.88;41.91;74641.94;5055486;28;20025;-86
2022/07/28 11:27:42;;;;;;;2.40;1.00;;;;;;;-148.88;40.83;74672.41;5055644;28;20029;-86